createdAt,value
2023-04-23T00:00:56.175Z,64.1677
2023-04-23T00:01:57.818Z,64.5738
2023-04-23T00:02:59.873Z,64.4354
2023-04-23T00:04:01.474Z,64.8108
2023-04-23T00:05:02.784Z,64.9662
2023-04-23T00:06:04.467Z,65.1654
2023-04-23T00:07:06.013Z,64.6331
2023-04-23T00:08:07.794Z,63.9762
2023-04-23T00:09:09.335Z,63.7592
2023-04-23T00:10:11.007Z,64.1838
2023-04-23T00:11:13.192Z,63.7946
2023-04-23T00:12:14.282Z,63.5708
2023-04-23T00:13:15.909Z,63.5262
2023-04-23T00:14:17.629Z,64.0846
2023-04-23T00:15:19.719Z,64.1792
2023-04-23T00:16:20.887Z,63.6600
2023-04-23T00:17:22.492Z,64.6177
2023-04-23T00:18:24.154Z,64.8831
2023-04-23T00:19:25.828Z,64.2023
2023-04-23T00:20:27.405Z,64.7377
2023-04-23T00:21:29.030Z,64.4131
2023-04-23T00:22:30.737Z,63.9885
2023-04-23T00:23:32.447Z,63.4415
2023-04-23T00:24:34.330Z,63.2538
2023-04-23T00:25:35.590Z,62.9931
2023-04-23T00:26:37.313Z,63.7023
2023-04-23T00:27:38.931Z,63.6200
2023-04-23T00:28:41.340Z,63.5962
2023-04-23T00:29:42.215Z,63.9654
2023-04-23T00:30:43.883Z,64.5146
2023-04-23T00:31:45.485Z,64.4362
2023-04-23T00:32:47.330Z,64.1823
2023-04-23T00:33:48.736Z,64.6100
2023-04-23T00:34:50.770Z,64.5377
2023-04-23T00:35:52.018Z,64.5854
2023-04-23T00:36:53.733Z,64.7831
2023-04-23T00:37:55.290Z,63.8769
2023-04-23T00:38:57.027Z,63.0792
2023-04-23T00:39:58.764Z,62.8608
2023-04-23T00:41:00.353Z,62.2031
2023-04-23T00:42:01.878Z,63.3208
2023-04-23T00:43:03.568Z,63.7231
2023-04-23T00:44:05.325Z,64.3469
2023-04-23T00:45:06.861Z,64.1161
2023-04-23T00:46:09.314Z,64.0023
2023-04-23T00:47:10.072Z,63.3769
2023-04-23T00:48:11.805Z,63.4485
2023-04-23T00:49:14.323Z,63.5969
2023-04-23T00:50:15.163Z,63.1654
2023-04-23T00:51:17.370Z,63.7092
2023-04-23T00:52:18.359Z,63.6031
2023-04-23T00:53:19.982Z,62.3008
2023-04-23T00:54:21.570Z,62.9200
2023-04-23T00:55:23.331Z,63.2246
2023-04-23T00:56:24.960Z,63.2538
2023-04-23T00:57:26.594Z,63.1585
2023-04-23T00:58:28.140Z,63.4031
2023-04-23T00:59:29.817Z,63.4285
2023-04-23T01:00:32.319Z,63.0331
2023-04-23T01:01:33.251Z,63.5038
2023-04-23T01:02:34.812Z,63.0554
2023-04-23T01:03:36.682Z,62.4600
2023-04-23T01:04:38.177Z,62.5138
2023-04-23T01:05:39.853Z,62.5846
2023-04-23T01:06:41.472Z,62.6892
2023-04-23T01:07:43.079Z,61.3608
2023-04-23T01:08:44.727Z,62.1246
2023-04-23T01:09:46.396Z,62.7162
2023-04-23T01:10:48.102Z,63.0246
2023-04-23T01:11:49.755Z,62.7438
2023-04-23T01:12:51.277Z,62.6123
2023-04-23T01:13:52.991Z,61.6762
2023-04-23T01:14:54.538Z,62.5169
2023-04-23T01:15:56.268Z,62.9323
2023-04-23T01:16:58.874Z,63.7762
2023-04-23T01:17:59.593Z,63.0977
2023-04-23T01:19:01.084Z,62.2277
2023-04-23T01:20:02.746Z,61.2454
2023-04-23T01:21:04.467Z,60.2546
2023-04-23T01:22:06.139Z,60.9685
2023-04-23T01:23:07.763Z,60.9431
2023-04-23T01:24:09.367Z,62.1592
2023-04-23T01:25:10.977Z,62.2146
2023-04-23T01:26:13.592Z,62.3338
2023-04-23T01:27:14.341Z,62.1115
2023-04-23T01:28:15.956Z,61.8800
2023-04-23T01:29:17.599Z,60.8323
2023-04-23T01:30:19.232Z,62.0077
2023-04-23T01:31:20.966Z,61.6138
2023-04-23T01:32:22.647Z,60.8562
2023-04-23T01:33:24.118Z,61.0908
2023-04-23T01:34:26.778Z,60.6708
2023-04-23T01:35:27.343Z,59.6908
2023-04-23T01:36:29.359Z,59.8492
2023-04-23T01:37:30.818Z,60.7092
2023-04-23T01:38:33.295Z,61.1831
2023-04-23T01:39:33.996Z,60.5815
2023-04-23T01:40:36.014Z,59.9477
2023-04-23T01:41:37.237Z,59.8231
2023-04-23T01:42:38.944Z,60.6115
2023-04-23T01:43:40.558Z,60.8808
2023-04-23T01:44:42.568Z,60.1277
2023-04-23T01:45:43.914Z,61.0792
2023-04-23T01:46:45.432Z,61.8962
2023-04-23T01:47:47.224Z,62.1738
2023-04-23T01:48:48.762Z,60.9992
2023-04-23T01:49:50.397Z,60.4031
2023-04-23T01:50:52.141Z,60.5915
2023-04-23T01:51:53.672Z,60.7962
2023-04-23T01:52:55.406Z,61.1169
2023-04-23T01:53:56.918Z,60.8523
2023-04-23T01:54:59.038Z,60.9169
2023-04-23T01:56:00.236Z,61.6546
2023-04-23T01:57:01.880Z,61.6677
2023-04-23T01:58:03.505Z,62.0285
2023-04-23T01:59:06.466Z,62.0523
2023-04-23T02:00:06.760Z,61.3692
2023-04-23T02:01:09.492Z,61.7485
2023-04-23T02:02:10.069Z,60.0423
2023-04-23T02:03:11.892Z,59.9477
2023-04-23T02:04:13.380Z,60.7738
2023-04-23T02:05:15.181Z,61.3962
2023-04-23T02:06:16.613Z,61.7162
2023-04-23T02:07:18.286Z,60.6631
2023-04-23T02:08:19.938Z,60.2185
2023-04-23T02:09:22.649Z,60.8838
2023-04-23T02:10:23.163Z,61.5469
2023-04-23T02:11:25.096Z,61.2515
2023-04-23T02:12:26.584Z,61.9546
2023-04-23T02:13:28.514Z,61.6892
2023-04-23T02:14:29.756Z,61.7562
2023-04-23T02:15:31.487Z,60.8854
2023-04-23T02:16:33.136Z,60.9123
2023-04-23T02:17:34.784Z,61.5769
2023-04-23T02:18:36.366Z,61.0746
2023-04-23T02:19:38.083Z,60.9185
2023-04-23T02:20:39.666Z,61.1062
2023-04-23T02:21:41.422Z,61.0262
2023-04-23T02:22:43.882Z,61.3300
2023-04-23T02:23:44.664Z,61.4231
2023-04-23T02:24:46.306Z,61.7292
2023-04-23T02:25:48.004Z,62.0808
2023-04-23T02:26:49.549Z,61.9854
2023-04-23T02:27:51.218Z,60.4492
2023-04-23T02:28:53.010Z,60.0131
2023-04-23T02:29:54.499Z,60.3923
2023-04-23T02:30:56.090Z,60.1692
2023-04-23T02:31:57.930Z,60.6492
2023-04-23T02:32:59.437Z,59.5700
2023-04-23T02:34:01.029Z,59.1931
2023-04-23T02:35:02.645Z,59.8585
2023-04-23T02:36:04.308Z,60.3246
2023-04-23T02:37:06.957Z,61.2831
2023-04-23T02:38:07.521Z,61.2662
2023-04-23T02:39:09.102Z,61.8969
2023-04-23T02:40:10.907Z,62.1369
2023-04-23T02:41:12.928Z,61.1508
2023-04-23T02:42:14.204Z,59.5369
2023-04-23T02:43:15.783Z,60.8646
2023-04-23T02:44:17.426Z,60.5500
2023-04-23T02:45:19.088Z,60.6492
2023-04-23T02:46:20.780Z,60.2308
2023-04-23T02:47:22.447Z,60.4977
2023-04-23T02:48:24.031Z,60.5331
2023-04-23T02:49:25.650Z,59.6385
2023-04-23T02:50:27.305Z,60.0354
2023-04-23T02:51:29.509Z,60.1800
2023-04-23T02:52:30.579Z,59.9277
2023-04-23T02:53:32.217Z,60.8338
2023-04-23T02:54:33.829Z,60.6723
2023-04-23T02:55:35.500Z,59.7923
2023-04-23T02:56:37.144Z,59.8800
2023-04-23T02:57:38.932Z,60.2831
2023-04-23T02:58:40.392Z,59.8185
2023-04-23T02:59:42.118Z,59.2215
2023-04-23T03:00:43.725Z,59.8269
2023-04-23T03:01:45.394Z,60.4562
2023-04-23T03:02:47.126Z,60.5846
2023-04-23T03:03:48.869Z,60.2915
2023-04-23T03:04:50.256Z,60.3846
2023-04-23T03:05:51.926Z,60.2231
2023-04-23T03:06:53.639Z,61.0377
2023-04-23T03:07:55.936Z,60.7562
2023-04-23T03:08:56.812Z,60.0677
2023-04-23T03:09:58.539Z,59.6269
2023-04-23T03:11:00.167Z,59.7762
2023-04-23T03:12:02.486Z,61.4523
2023-04-23T03:13:03.454Z,60.0285
2023-04-23T03:14:05.140Z,59.6315
2023-04-23T03:15:06.706Z,59.5423
2023-04-23T03:16:08.934Z,59.4077
2023-04-23T03:17:10.060Z,59.8669
2023-04-23T03:18:11.716Z,60.1562
2023-04-23T03:19:13.345Z,60.5100
2023-04-23T03:20:15.914Z,61.2631
2023-04-23T03:21:16.557Z,60.7438
2023-04-23T03:22:18.307Z,59.6938
2023-04-23T03:23:19.926Z,59.5292
2023-04-23T03:24:21.559Z,59.9162
2023-04-23T03:25:23.117Z,60.6308
2023-04-23T03:26:24.828Z,59.7692
2023-04-23T03:27:26.481Z,59.6815
2023-04-23T03:28:28.162Z,60.2023
2023-04-23T03:29:29.707Z,59.7438
2023-04-23T03:30:31.381Z,59.8262
2023-04-23T03:31:32.975Z,60.4392
2023-04-23T03:32:34.714Z,60.9608
2023-04-23T03:33:36.341Z,61.6669
2023-04-23T03:34:37.952Z,60.2415
2023-04-23T03:35:39.594Z,60.6077
2023-04-23T03:36:41.204Z,60.7877
2023-04-23T03:37:42.907Z,61.1808
2023-04-23T03:38:44.596Z,59.6815
2023-04-23T03:39:46.147Z,58.6946
2023-04-23T03:40:47.843Z,59.3415
2023-04-23T03:41:49.418Z,60.5069
2023-04-23T03:42:51.169Z,60.7462
2023-04-23T03:43:53.430Z,60.7008
2023-04-23T03:44:54.371Z,60.7562
2023-04-23T03:45:56.104Z,60.6531
2023-04-23T03:46:58.402Z,59.7269
2023-04-23T03:47:59.428Z,59.3208
2023-04-23T03:49:01.454Z,59.7177
2023-04-23T03:50:02.604Z,60.7562
2023-04-23T03:51:04.229Z,60.2254
2023-04-23T03:52:05.908Z,59.9508
2023-04-23T03:53:07.596Z,59.9777
2023-04-23T03:54:09.128Z,59.4208
2023-04-23T03:55:10.787Z,58.9277
2023-04-23T03:56:12.397Z,58.3938
2023-04-23T03:57:14.016Z,58.3654
2023-04-23T03:58:15.700Z,58.3569
2023-04-23T03:59:17.333Z,58.0631
2023-04-23T04:00:19.032Z,57.9969
2023-04-23T04:01:20.594Z,57.3015
2023-04-23T04:02:22.408Z,57.1500
2023-04-23T04:03:25.185Z,56.4292
2023-04-23T04:04:25.832Z,56.5608
2023-04-23T04:05:27.309Z,56.2354
2023-04-23T04:06:28.914Z,56.2754
2023-04-23T04:07:30.464Z,56.5377
2023-04-23T04:08:32.133Z,56.2923
2023-04-23T04:09:33.764Z,56.0446
2023-04-23T04:10:35.932Z,55.7762
2023-04-23T04:11:37.410Z,55.3138
2023-04-23T04:12:38.739Z,55.0854
2023-04-23T04:13:40.370Z,54.8185
2023-04-23T04:14:42.301Z,54.8692
2023-04-23T04:15:44.459Z,54.7685
2023-04-23T04:16:45.368Z,54.9269
2023-04-23T04:17:47.017Z,54.7715
2023-04-23T04:18:48.724Z,54.7569
2023-04-23T04:19:50.606Z,54.9523
2023-04-23T04:20:52.031Z,54.5031
2023-04-23T04:21:53.630Z,54.4608
2023-04-23T04:22:55.295Z,54.1131
2023-04-23T04:23:57.980Z,53.8969
2023-04-23T04:24:58.454Z,53.8015
2023-04-23T04:26:00.203Z,53.6569
2023-04-23T04:27:01.869Z,53.9031
2023-04-23T04:28:03.554Z,53.6962
2023-04-23T04:29:05.126Z,53.7769
2023-04-23T04:30:06.880Z,53.4454
2023-04-23T04:31:08.505Z,53.6300
2023-04-23T04:32:10.098Z,53.5015
2023-04-23T04:33:11.770Z,53.5315
2023-04-23T04:34:13.449Z,53.4554
2023-04-23T04:35:14.968Z,53.3038
2023-04-23T04:36:16.703Z,53.1008
2023-04-23T04:37:18.279Z,53.1992
2023-04-23T04:38:19.960Z,53.0615
2023-04-23T04:39:21.583Z,52.9638
2023-04-23T04:40:23.278Z,52.9300
2023-04-23T04:41:24.920Z,52.8408
2023-04-23T04:42:26.534Z,52.6754
2023-04-23T04:43:28.227Z,52.9877
2023-04-23T04:44:29.796Z,52.8831
2023-04-23T04:45:31.509Z,52.9992
2023-04-23T04:46:33.131Z,53.2692
2023-04-23T04:47:34.776Z,53.1508
2023-04-23T04:48:37.377Z,53.2277
2023-04-23T04:49:38.089Z,53.0215
2023-04-23T04:50:39.680Z,53.0962
2023-04-23T04:51:41.293Z,53.1792
2023-04-23T04:52:42.983Z,53.2854
2023-04-23T04:53:44.589Z,53.3323
2023-04-23T04:54:46.226Z,53.4062
2023-04-23T04:55:47.907Z,53.3754
2023-04-23T04:56:49.627Z,53.2600
2023-04-23T04:57:52.200Z,53.3638
2023-04-23T04:58:53.776Z,53.5423
2023-04-23T04:59:55.350Z,53.4892
2023-04-23T05:00:56.098Z,53.4462
2023-04-23T05:01:57.793Z,53.5315
2023-04-23T05:02:59.535Z,53.5769
2023-04-23T05:04:01.109Z,53.4662
2023-04-23T05:05:02.619Z,53.5569
2023-04-23T05:06:04.302Z,53.6662
2023-04-23T05:07:05.925Z,53.7392
2023-04-23T05:08:07.574Z,53.2577
2023-04-23T05:09:09.173Z,52.6592
2023-04-23T05:10:10.931Z,52.9531
2023-04-23T05:11:12.498Z,53.3038
2023-04-23T05:12:14.238Z,53.5269
2023-04-23T05:13:15.855Z,53.8462
2023-04-23T05:14:17.459Z,53.6277
2023-04-23T05:15:19.108Z,53.7408
2023-04-23T05:16:20.871Z,53.7815
2023-04-23T05:17:23.075Z,53.6831
2023-04-23T05:18:24.120Z,53.6631
2023-04-23T05:19:25.647Z,53.9377
2023-04-23T05:20:27.352Z,53.9869
2023-04-23T05:21:29.022Z,54.0423
2023-04-23T05:22:30.670Z,53.9662
2023-04-23T05:23:32.213Z,54.0977
2023-04-23T05:24:33.948Z,54.2131
2023-04-23T05:25:35.580Z,54.1954
2023-04-23T05:26:37.267Z,54.3000
2023-04-23T05:27:38.893Z,54.4115
2023-04-23T05:28:40.517Z,54.4492
2023-04-23T05:29:42.118Z,54.3492
2023-04-23T05:30:43.804Z,54.2677
2023-04-23T05:31:45.498Z,54.3300
2023-04-23T05:32:47.198Z,54.4900
2023-04-23T05:33:50.504Z,54.5015
2023-04-23T05:34:50.372Z,54.5331
2023-04-23T05:35:52.019Z,54.2815
2023-04-23T05:36:53.772Z,54.3231
2023-04-23T05:37:55.373Z,54.3638
2023-04-23T05:38:56.996Z,54.4231
2023-04-23T05:39:58.577Z,54.4077
2023-04-23T05:41:00.291Z,54.4146
2023-04-23T05:42:02.405Z,54.4223
2023-04-23T05:43:03.579Z,54.4654
2023-04-23T05:44:05.185Z,54.5277
2023-04-23T05:45:08.864Z,54.5731
2023-04-23T05:46:08.512Z,54.5377
2023-04-23T05:47:10.203Z,54.5446
2023-04-23T05:48:11.843Z,54.5931
2023-04-23T05:49:13.468Z,54.4938
2023-04-23T05:50:15.092Z,54.6438
2023-04-23T05:51:16.788Z,54.7723
2023-04-23T05:52:18.434Z,54.7423
2023-04-23T05:53:20.162Z,54.8508
2023-04-23T05:54:21.653Z,54.8377
2023-04-23T05:55:23.338Z,54.8838
2023-04-23T05:56:25.058Z,54.9515
2023-04-23T05:57:27.525Z,54.9154
2023-04-23T05:58:28.346Z,54.9469
2023-04-23T05:59:29.978Z,55.0023
2023-04-23T06:00:31.630Z,55.0431
2023-04-23T06:01:33.205Z,55.1338
2023-04-23T06:02:35.042Z,55.0808
2023-04-23T06:03:36.793Z,55.0885
2023-04-23T06:04:38.361Z,55.1054
2023-04-23T06:05:39.835Z,55.0546
2023-04-23T06:06:41.484Z,55.0923
2023-04-23T06:07:43.180Z,55.0015
2023-04-23T06:08:45.063Z,55.0915
2023-04-23T06:09:46.401Z,55.2354
2023-04-23T06:10:48.108Z,55.1523
2023-04-23T06:11:49.683Z,55.1808
2023-04-23T06:12:51.592Z,55.3215
2023-04-23T06:13:53.060Z,55.2369
2023-04-23T06:14:54.689Z,55.2138
2023-04-23T06:15:56.319Z,55.3500
2023-04-23T06:16:57.981Z,55.3238
2023-04-23T06:17:59.666Z,55.2631
2023-04-23T06:19:01.588Z,55.1985
2023-04-23T06:20:02.904Z,55.2223
2023-04-23T06:21:04.566Z,55.2269
2023-04-23T06:22:06.164Z,55.2477
2023-04-23T06:23:07.866Z,55.2385
2023-04-23T06:24:09.504Z,55.2554
2023-04-23T06:25:11.180Z,55.3446
2023-04-23T06:26:12.722Z,55.4931
2023-04-23T06:27:14.421Z,55.5392
2023-04-23T06:28:16.163Z,55.4492
2023-04-23T06:29:17.758Z,55.5292
2023-04-23T06:30:19.374Z,55.5608
2023-04-23T06:31:21.061Z,55.6338
2023-04-23T06:32:22.630Z,55.5777
2023-04-23T06:33:24.284Z,55.5254
2023-04-23T06:34:26.131Z,55.5500
2023-04-23T06:35:27.635Z,55.5777
2023-04-23T06:36:29.166Z,55.5938
2023-04-23T06:37:31.029Z,55.6277
2023-04-23T06:38:32.428Z,55.5823
2023-04-23T06:39:34.183Z,55.5915
2023-04-23T06:40:35.718Z,55.5454
2023-04-23T06:41:37.337Z,55.5946
2023-04-23T06:42:40.096Z,55.6085
2023-04-23T06:43:40.887Z,55.5754
2023-04-23T06:44:42.675Z,55.6392
2023-04-23T06:45:44.232Z,55.5192
2023-04-23T06:46:45.826Z,55.4762
2023-04-23T06:47:48.212Z,55.4792
2023-04-23T06:48:48.999Z,55.5677
2023-04-23T06:49:50.736Z,55.5815
2023-04-23T06:50:52.379Z,55.5338
2023-04-23T06:51:56.975Z,55.7008
2023-04-23T06:52:55.476Z,55.7115
2023-04-23T06:53:57.193Z,55.7608
2023-04-23T06:54:59.862Z,55.8123
2023-04-23T06:56:00.461Z,55.9331
2023-04-23T06:57:02.179Z,55.8877
2023-04-23T06:58:03.753Z,54.4792
2023-04-23T06:59:05.356Z,51.0715
2023-04-23T07:00:07.109Z,46.1962
2023-04-23T07:01:08.701Z,43.5731
2023-04-23T07:02:10.369Z,45.1100
2023-04-23T07:03:11.997Z,45.2354
2023-04-23T07:04:13.669Z,46.2892
2023-04-23T07:05:15.272Z,46.6654
2023-04-23T07:06:18.603Z,47.3646
2023-04-23T07:07:18.508Z,47.8915
2023-04-23T07:08:20.205Z,48.5231
2023-04-23T07:09:21.818Z,49.0438
2023-04-23T07:10:23.560Z,49.5377
2023-04-23T07:11:25.142Z,50.0354
2023-04-23T07:12:26.830Z,50.3562
2023-04-23T07:13:28.442Z,48.1569
2023-04-23T07:14:30.087Z,42.4500
2023-04-23T07:15:31.845Z,43.7185
2023-04-23T07:16:33.480Z,44.8069
2023-04-23T07:17:34.992Z,45.0008
2023-04-23T07:18:36.657Z,45.5262
2023-04-23T07:19:38.288Z,46.2846
2023-04-23T07:20:39.989Z,46.9308
2023-04-23T07:21:41.578Z,47.4208
2023-04-23T07:22:43.232Z,47.9962
2023-04-23T07:23:44.865Z,48.4385
2023-04-23T07:24:46.522Z,48.7254
2023-04-23T07:25:48.183Z,49.1508
2023-04-23T07:26:49.858Z,43.2646
2023-04-23T07:27:51.401Z,40.7323
2023-04-23T07:28:53.183Z,43.6015
2023-04-23T07:29:54.704Z,43.6954
2023-04-23T07:30:56.454Z,44.2285
2023-04-23T07:31:58.077Z,44.8823
2023-04-23T07:32:59.718Z,45.3385
2023-04-23T07:34:01.392Z,45.8754
2023-04-23T07:35:02.975Z,46.4223
2023-04-23T07:36:04.598Z,46.9892
2023-04-23T07:37:06.316Z,39.4485
2023-04-23T07:38:07.860Z,40.2362
2023-04-23T07:39:09.545Z,41.7738
2023-04-23T07:40:11.189Z,42.2646
2023-04-23T07:41:12.914Z,43.1738
2023-04-23T07:42:15.068Z,44.0469
2023-04-23T07:43:16.142Z,44.4200
2023-04-23T07:44:17.761Z,45.0815
2023-04-23T07:45:19.500Z,45.8692
2023-04-23T07:46:21.146Z,46.3154
2023-04-23T07:47:23.002Z,46.8031
2023-04-23T07:48:24.413Z,47.5254
2023-04-23T07:49:26.021Z,38.4323
2023-04-23T07:50:27.637Z,42.5038
2023-04-23T07:51:29.351Z,43.4754
2023-04-23T07:52:30.957Z,43.8638
2023-04-23T07:53:32.577Z,43.2908
2023-04-23T07:54:34.207Z,43.9654
2023-04-23T07:55:35.917Z,44.6100
2023-04-23T07:56:37.597Z,45.0338
2023-04-23T07:57:39.241Z,45.5408
2023-04-23T07:58:40.815Z,46.3400
2023-04-23T07:59:42.863Z,47.1862
2023-04-23T08:00:44.088Z,47.1869
2023-04-23T08:01:45.820Z,47.4646
2023-04-23T08:02:47.614Z,47.9269
2023-04-23T08:03:49.440Z,48.3931
2023-04-23T08:04:50.827Z,48.4900
2023-04-23T08:05:52.336Z,48.9962
2023-04-23T08:06:54.045Z,49.3646
2023-04-23T08:07:55.645Z,49.7992
2023-04-23T08:08:57.308Z,49.9131
2023-04-23T08:09:58.900Z,50.4815
2023-04-23T08:11:00.547Z,50.6708
2023-04-23T08:12:02.236Z,50.8792
2023-04-23T08:13:03.902Z,51.3092
2023-04-23T08:14:05.496Z,51.2492
2023-04-23T08:15:07.220Z,51.7285
2023-04-23T08:16:08.790Z,52.1331
2023-04-23T08:17:10.463Z,52.1846
2023-04-23T08:18:12.107Z,52.2400
2023-04-23T08:19:13.706Z,52.5438
2023-04-23T08:20:15.302Z,52.5754
2023-04-23T08:21:17.031Z,52.8338
2023-04-23T08:22:20.293Z,53.0746
2023-04-23T08:23:20.353Z,53.0069
2023-04-23T08:24:22.456Z,53.2662
2023-04-23T08:25:23.603Z,53.4715
2023-04-23T08:26:25.214Z,53.4000
2023-04-23T08:27:26.971Z,53.6985
2023-04-23T08:28:28.593Z,53.7962
2023-04-23T08:29:30.208Z,53.9008
2023-04-23T08:30:31.789Z,54.0615
2023-04-23T08:31:33.509Z,54.0623
2023-04-23T08:32:35.158Z,54.1385
2023-04-23T08:33:36.875Z,54.3185
2023-04-23T08:34:38.442Z,54.3585
2023-04-23T08:35:40.078Z,54.4792
2023-04-23T08:36:41.649Z,54.7900
2023-04-23T08:37:43.444Z,54.6400
2023-04-23T08:38:44.989Z,54.8669
2023-04-23T08:39:46.686Z,54.8085
2023-04-23T08:40:48.227Z,55.0162
2023-04-23T08:41:49.926Z,55.1915
2023-04-23T08:42:51.644Z,55.4377
2023-04-23T08:43:53.238Z,55.5577
2023-04-23T08:44:54.801Z,55.7646
2023-04-23T08:45:56.510Z,55.5392
2023-04-23T08:46:58.248Z,55.6415
2023-04-23T08:48:02.134Z,55.8885
2023-04-23T08:49:01.452Z,55.8485
2023-04-23T08:50:03.074Z,55.8754
2023-04-23T08:51:04.690Z,55.7915
2023-04-23T08:52:06.380Z,53.9462
2023-04-23T08:53:08.065Z,48.2469
2023-04-23T08:54:09.679Z,47.0700
2023-04-23T08:55:11.255Z,45.9115
2023-04-23T08:56:12.940Z,44.2254
2023-04-23T08:57:14.574Z,46.0862
2023-04-23T08:58:16.279Z,46.1838
2023-04-23T08:59:17.911Z,46.5654
2023-04-23T09:00:19.455Z,44.8462
2023-04-23T09:01:21.297Z,44.1638
2023-04-23T09:02:22.986Z,44.2369
2023-04-23T09:03:24.547Z,44.9100
2023-04-23T09:04:26.164Z,45.0723
2023-04-23T09:05:27.710Z,45.4354
2023-04-23T09:06:29.422Z,45.7162
2023-04-23T09:07:31.023Z,45.8377
2023-04-23T09:08:32.753Z,46.2069
2023-04-23T09:09:34.641Z,46.7092
2023-04-23T09:10:35.974Z,47.1454
2023-04-23T09:11:37.577Z,47.2346
2023-04-23T09:12:39.276Z,47.9600
2023-04-23T09:13:40.950Z,48.4731
2023-04-23T09:14:42.852Z,48.8446
2023-04-23T09:15:44.169Z,49.4331
2023-04-23T09:16:45.922Z,49.6238
2023-04-23T09:17:47.529Z,49.9438
2023-04-23T09:18:49.194Z,50.1615
2023-04-23T09:19:50.858Z,50.6685
2023-04-23T09:20:52.528Z,50.3031
2023-04-23T09:21:54.046Z,50.7462
2023-04-23T09:22:55.727Z,50.6292
2023-04-23T09:23:57.449Z,51.2123
2023-04-23T09:24:59.090Z,51.6269
2023-04-23T09:26:00.627Z,52.3508
2023-04-23T09:27:02.267Z,51.8600
2023-04-23T09:28:03.958Z,52.6677
2023-04-23T09:29:05.609Z,52.3108
2023-04-23T09:30:07.294Z,52.4962
2023-04-23T09:31:08.879Z,53.2369
2023-04-23T09:32:10.586Z,53.7462
2023-04-23T09:33:12.151Z,53.4377
2023-04-23T09:34:14.206Z,53.3123
2023-04-23T09:35:15.554Z,53.2623
2023-04-23T09:36:17.233Z,54.1923
2023-04-23T09:37:18.783Z,53.5515
2023-04-23T09:38:20.428Z,54.5669
2023-04-23T09:39:22.065Z,54.4669
2023-04-23T09:40:23.749Z,53.6585
2023-04-23T09:41:25.304Z,54.8331
2023-04-23T09:42:26.986Z,54.8508
2023-04-23T09:43:28.575Z,55.0631
2023-04-23T09:44:30.353Z,54.9669
2023-04-23T09:45:31.945Z,55.0069
2023-04-23T09:46:33.562Z,55.3315
2023-04-23T09:47:35.252Z,55.4992
2023-04-23T09:48:36.879Z,55.5731
2023-04-23T09:49:38.534Z,55.5746
2023-04-23T09:50:40.245Z,55.1392
2023-04-23T09:51:41.769Z,55.3769
2023-04-23T09:52:43.431Z,55.4254
2023-04-23T09:53:45.056Z,54.3023
2023-04-23T09:54:47.214Z,47.9869
2023-04-23T09:55:48.397Z,45.9062
2023-04-23T09:56:50.076Z,43.0423
2023-04-23T09:57:51.611Z,40.9954
2023-04-23T09:58:53.366Z,40.2962
2023-04-23T10:00:03.754Z,40.0515
2023-04-23T10:00:56.638Z,40.6415
2023-04-23T10:01:58.289Z,41.3031
2023-04-23T10:03:00.168Z,41.9023
2023-04-23T10:04:01.694Z,42.5792
2023-04-23T10:05:21.468Z,43.2262
2023-04-23T10:06:05.264Z,44.1454
2023-04-23T10:07:17.923Z,45.3862
2023-04-23T10:08:08.232Z,45.4131
2023-04-23T10:09:09.704Z,46.4908
2023-04-23T10:10:11.463Z,48.0762
2023-04-23T10:11:20.734Z,48.4192
2023-04-23T10:13:16.302Z,51.0146
2023-04-23T10:14:17.962Z,50.3231
2023-04-23T10:15:19.684Z,50.3077
2023-04-23T10:16:23.284Z,50.5408
2023-04-23T10:17:22.932Z,50.0531
2023-04-23T10:18:24.492Z,48.7815
2023-04-23T10:19:27.171Z,46.9946
2023-04-23T10:20:27.878Z,44.5100
2023-04-23T10:21:36.620Z,43.1654
2023-04-23T10:22:31.067Z,43.0469
2023-04-23T10:23:32.802Z,41.7738
2023-04-23T10:24:34.371Z,41.3431
2023-04-23T10:25:36.729Z,41.9385
2023-04-23T10:26:38.190Z,42.2792
2023-04-23T10:27:51.118Z,42.2038
2023-04-23T10:28:41.042Z,40.7815
2023-04-23T10:29:43.017Z,41.8331
2023-04-23T10:30:44.681Z,41.9831
2023-04-23T10:31:45.980Z,41.5138
2023-04-23T10:32:47.561Z,41.3477
2023-04-23T10:33:58.204Z,42.2692
2023-04-23T10:34:50.931Z,39.6192
2023-04-23T10:35:52.601Z,40.3731
2023-04-23T10:36:54.181Z,40.6738
2023-04-23T10:37:55.844Z,41.1962
2023-04-23T10:38:59.106Z,41.2531
2023-04-23T10:39:59.132Z,39.9769
2023-04-23T10:41:00.801Z,39.9023
2023-04-23T10:42:02.466Z,39.4446
2023-04-23T10:43:04.026Z,39.7977
2023-04-23T10:44:05.723Z,40.1831
2023-04-23T10:45:16.613Z,41.9085
2023-04-23T10:46:09.139Z,39.8700
2023-04-23T10:47:10.738Z,38.9562
2023-04-23T10:48:12.460Z,39.7385
2023-04-23T10:49:14.016Z,39.9323
2023-04-23T10:50:15.744Z,41.8415
2023-04-23T10:51:56.084Z,39.4823
2023-04-23T10:52:21.495Z,39.1854
2023-04-23T10:53:20.604Z,39.4477
2023-04-23T10:54:22.319Z,39.0500
2023-04-23T10:55:23.969Z,39.7223
2023-04-23T10:56:25.789Z,39.3831
2023-04-23T10:57:27.271Z,38.3700
2023-04-23T10:58:28.943Z,42.0900
2023-04-23T10:59:30.465Z,40.1692
2023-04-23T11:00:32.164Z,41.1415
2023-04-23T11:01:33.827Z,39.4846
2023-04-23T11:02:35.607Z,38.5169
2023-04-23T11:03:39.646Z,38.9262
2023-04-23T11:04:38.834Z,39.0862
2023-04-23T11:05:40.389Z,40.5823
2023-04-23T11:06:42.089Z,40.6454
2023-04-23T11:07:43.750Z,39.9508
2023-04-23T11:08:45.426Z,40.5623
2023-04-23T11:09:47.013Z,40.4354
2023-04-23T11:10:48.667Z,40.6400
2023-04-23T11:11:50.288Z,40.9700
2023-04-23T11:12:52.027Z,39.1308
2023-04-23T11:13:53.621Z,38.0154
2023-04-23T11:14:55.307Z,38.6585
2023-04-23T11:15:56.907Z,38.1477
2023-04-23T11:16:58.530Z,38.2669
2023-04-23T11:18:00.216Z,40.3931
2023-04-23T11:19:01.911Z,39.1615
2023-04-23T11:20:03.558Z,34.5615
2023-04-23T11:21:05.187Z,32.4508
2023-04-23T11:22:06.767Z,35.6415
2023-04-23T11:23:08.462Z,34.6108
2023-04-23T11:24:10.097Z,35.0185
2023-04-23T11:25:11.842Z,35.4831
2023-04-23T11:26:13.424Z,35.0215
2023-04-23T11:27:15.044Z,34.9485
2023-04-23T11:28:16.694Z,34.8269
2023-04-23T11:29:18.339Z,34.7569
2023-04-23T11:30:19.962Z,36.7992
2023-04-23T11:31:21.656Z,34.7985
2023-04-23T11:32:23.298Z,35.7285
2023-04-23T11:33:24.927Z,37.5400
2023-04-23T11:34:26.604Z,37.8215
2023-04-23T11:35:28.167Z,36.4031
2023-04-23T11:36:30.699Z,35.7092
2023-04-23T11:37:31.480Z,35.1408
2023-04-23T11:38:33.056Z,35.2646
2023-04-23T11:39:34.733Z,34.9508
2023-04-23T11:40:36.643Z,36.1485
2023-04-23T11:41:38.087Z,35.7785
2023-04-23T11:42:39.664Z,35.3223
2023-04-23T11:43:42.212Z,35.6054
2023-04-23T11:44:42.972Z,35.5469
2023-04-23T11:45:44.701Z,36.5754
2023-04-23T11:46:46.272Z,38.6808
2023-04-23T11:47:47.962Z,37.3169
2023-04-23T11:48:49.562Z,36.2862
2023-04-23T11:49:51.271Z,38.5431
2023-04-23T11:50:53.130Z,37.3415
2023-04-23T11:51:54.611Z,35.8946
2023-04-23T11:52:56.201Z,35.0954
2023-04-23T11:53:57.906Z,34.5231
2023-04-23T11:54:59.467Z,36.0046
2023-04-23T11:56:01.219Z,38.1069
2023-04-23T11:57:02.788Z,36.6869
2023-04-23T11:58:04.472Z,36.3454
2023-04-23T11:59:06.069Z,33.8615
2023-04-23T12:00:07.763Z,36.9108
2023-04-23T12:01:09.448Z,33.6162
2023-04-23T12:02:11.100Z,34.5246
2023-04-23T12:03:12.936Z,35.7100
2023-04-23T12:04:14.662Z,35.9531
2023-04-23T12:05:16.154Z,34.4131
2023-04-23T12:06:17.883Z,33.5923
2023-04-23T12:07:26.341Z,33.1423
2023-04-23T12:08:21.140Z,35.9977
2023-04-23T12:09:23.725Z,34.7346
2023-04-23T12:10:24.392Z,35.8977
2023-04-23T12:11:26.122Z,32.4677
2023-04-23T12:12:27.738Z,34.9623
2023-04-23T12:13:29.407Z,33.6092
2023-04-23T12:14:31.176Z,34.3908
2023-04-23T12:15:32.780Z,35.6123
2023-04-23T12:16:34.271Z,37.3569
2023-04-23T12:17:35.997Z,36.2969
2023-04-23T12:18:37.680Z,37.6538
2023-04-23T12:19:39.380Z,35.9262
2023-04-23T12:20:40.888Z,37.1462
2023-04-23T12:21:42.685Z,36.0177
2023-04-23T12:22:44.193Z,33.9015
2023-04-23T12:23:45.915Z,33.2562
2023-04-23T12:24:47.416Z,34.6231
2023-04-23T12:25:49.193Z,34.4623
2023-04-23T12:26:50.810Z,35.0992